createdAt,value
2017-09-25T00:00:00.429Z,33.00
2017-09-25T00:02:29.223Z,32.97
2017-09-25T00:05:00.811Z,29.27
2017-09-25T00:07:29.664Z,31.80
2017-09-25T00:09:58.397Z,30.67
2017-09-25T00:12:27.094Z,30.00
2017-09-25T00:14:55.886Z,30.53
2017-09-25T00:17:24.658Z,27.67
2017-09-25T00:19:53.483Z,32.20
2017-09-25T00:22:22.242Z,32.67
2017-09-25T00:24:50.944Z,28.20
2017-09-25T00:27:19.684Z,30.70
2017-09-25T00:29:48.456Z,30.17
2017-09-25T00:32:17.219Z,28.20
2017-09-25T00:34:45.942Z,38.80
2017-09-25T00:37:14.749Z,33.23
2017-09-25T00:39:43.578Z,32.10
2017-09-25T00:42:12.297Z,30.93
2017-09-25T00:44:41.058Z,29.53
2017-09-25T00:47:09.812Z,38.07
2017-09-25T00:49:38.559Z,30.03
2017-09-25T00:52:06.814Z,29.00
2017-09-25T00:54:35.434Z,34.20
2017-09-25T00:57:04.289Z,27.33
2017-09-25T00:59:32.757Z,29.40
2017-09-25T01:02:12.589Z,29.47
2017-09-25T01:04:52.452Z,30.10
2017-09-25T01:07:21.249Z,28.77
2017-09-25T01:09:49.985Z,31.00
2017-09-25T01:12:18.449Z,35.07
2017-09-25T01:14:47.247Z,31.63
2017-09-25T01:17:15.960Z,37.23
2017-09-25T01:19:44.824Z,27.37
2017-09-25T01:22:13.566Z,27.90
2017-09-25T01:24:42.411Z,35.80
2017-09-25T01:27:11.183Z,30.93
2017-09-25T01:29:39.973Z,38.97
2017-09-25T01:32:10.522Z,30.07
2017-09-25T01:34:39.232Z,31.67
2017-09-25T01:37:08.032Z,34.93
2017-09-25T01:39:36.786Z,32.67
2017-09-25T01:42:05.332Z,34.20
2017-09-25T01:44:34.715Z,30.33
2017-09-25T01:47:03.490Z,29.97
2017-09-25T01:49:32.222Z,30.13
2017-09-25T01:52:01.001Z,38.97
2017-09-25T01:54:29.694Z,29.20
2017-09-25T01:56:58.405Z,32.93
2017-09-25T01:59:27.150Z,34.97
2017-09-25T02:01:55.897Z,34.80
2017-09-25T02:04:24.654Z,33.30
2017-09-25T02:06:53.415Z,32.27
2017-09-25T02:09:22.203Z,34.80
2017-09-25T02:11:51.015Z,36.90
2017-09-25T02:14:19.830Z,35.73
2017-09-25T02:16:48.539Z,36.13
2017-09-25T02:19:17.291Z,31.40
2017-09-25T02:21:46.060Z,34.10
2017-09-25T02:24:14.807Z,32.73
2017-09-25T02:26:43.599Z,33.43
2017-09-25T02:29:12.331Z,32.67
2017-09-25T02:31:41.166Z,30.33
2017-09-25T02:34:09.931Z,31.83
2017-09-25T02:36:38.688Z,30.37
2017-09-25T02:39:07.405Z,37.90
2017-09-25T02:41:36.169Z,32.37
2017-09-25T02:44:04.967Z,28.20
2017-09-25T02:46:33.663Z,26.23
2017-09-25T02:49:02.456Z,27.50
2017-09-25T02:51:31.195Z,38.20
2017-09-25T02:54:00.099Z,31.53
2017-09-25T02:56:28.801Z,28.33
2017-09-25T02:58:59.193Z,39.87
2017-09-25T03:01:27.938Z,31.60
2017-09-25T03:03:56.658Z,33.33
2017-09-25T03:06:25.422Z,35.43
2017-09-25T03:08:54.188Z,38.73
2017-09-25T03:11:23.003Z,32.07
2017-09-25T03:13:51.739Z,39.27
2017-09-25T03:16:20.558Z,32.37
2017-09-25T03:18:49.299Z,34.67
2017-09-25T03:21:18.068Z,39.90
2017-09-25T03:23:46.824Z,33.10
2017-09-25T03:26:15.617Z,26.50
2017-09-25T03:28:44.434Z,27.90
2017-09-25T03:31:13.153Z,24.37
2017-09-25T03:33:41.915Z,30.43
2017-09-25T03:36:10.643Z,32.73
2017-09-25T03:38:39.400Z,33.50
2017-09-25T03:41:08.145Z,30.60
2017-09-25T03:43:36.987Z,28.93
2017-09-25T03:46:05.890Z,30.87
2017-09-25T03:48:36.942Z,33.37
2017-09-25T03:51:05.717Z,25.83
2017-09-25T03:53:34.561Z,30.60
2017-09-25T03:56:03.294Z,33.83
2017-09-25T03:58:35.740Z,30.47
2017-09-25T04:01:04.531Z,27.80
2017-09-25T04:03:33.257Z,29.40
2017-09-25T04:06:01.953Z,27.67
2017-09-25T04:08:34.992Z,33.80
2017-09-25T04:11:03.817Z,25.60
2017-09-25T04:13:32.650Z,27.43
2017-09-25T04:16:03.273Z,24.83
2017-09-25T04:18:37.346Z,30.93
2017-09-25T04:21:06.089Z,33.03
2017-09-25T04:23:34.883Z,28.33
2017-09-25T04:26:08.680Z,28.83
2017-09-25T04:28:39.962Z,45.00
2017-09-25T04:31:08.699Z,24.70
2017-09-25T04:33:41.671Z,26.47
2017-09-25T04:36:17.012Z,32.40
2017-09-25T04:38:45.855Z,28.17
2017-09-25T04:41:14.660Z,25.83
2017-09-25T04:43:43.405Z,27.67
2017-09-25T04:46:13.790Z,26.20
2017-09-25T04:48:42.498Z,35.10
2017-09-25T04:51:13.460Z,29.87
2017-09-25T04:53:43.189Z,35.67
2017-09-25T04:56:12.029Z,39.47
2017-09-25T04:58:40.810Z,37.40
2017-09-25T05:01:09.554Z,37.73
2017-09-25T05:03:38.534Z,33.00
2017-09-25T05:06:08.719Z,26.87
2017-09-25T05:08:37.662Z,27.43
2017-09-25T05:11:06.544Z,31.97
2017-09-25T05:13:35.402Z,31.00
2017-09-25T05:16:04.214Z,29.83
2017-09-25T05:18:35.787Z,33.10
2017-09-25T05:21:04.571Z,27.70
2017-09-25T05:23:37.707Z,31.57
2017-09-25T05:26:06.556Z,27.90
2017-09-25T05:28:39.193Z,34.60
2017-09-25T05:31:08.118Z,28.20
2017-09-25T05:33:36.944Z,26.27
2017-09-25T05:36:05.817Z,34.40
2017-09-25T05:38:36.161Z,32.30
2017-09-25T05:41:05.046Z,27.43
2017-09-25T05:43:33.868Z,30.97
2017-09-25T05:46:02.771Z,36.93
2017-09-25T05:48:35.428Z,28.73
2017-09-25T05:51:04.463Z,26.63
2017-09-25T05:53:33.246Z,32.53
2017-09-25T05:56:02.088Z,31.13
2017-09-25T05:58:35.586Z,24.40
2017-09-25T06:01:04.331Z,31.70
2017-09-25T06:03:33.108Z,32.63
2017-09-25T06:06:01.935Z,31.57
2017-09-25T06:08:34.647Z,31.50
2017-09-25T06:11:03.439Z,28.70
2017-09-25T06:13:32.094Z,26.30
2017-09-25T06:16:00.936Z,31.77
2017-09-25T06:18:29.701Z,29.67
2017-09-25T06:20:58.576Z,29.20
2017-09-25T06:23:27.405Z,30.37
2017-09-25T06:25:56.203Z,23.43
2017-09-25T06:28:25.031Z,27.30
2017-09-25T06:30:53.201Z,23.07
2017-09-25T06:33:22.200Z,25.17
2017-09-25T06:35:50.989Z,22.27
2017-09-25T06:38:19.751Z,25.87
2017-09-25T06:40:48.556Z,26.20
2017-09-25T06:43:17.340Z,25.57
2017-09-25T06:45:46.219Z,30.70
2017-09-25T06:48:15.095Z,26.40
2017-09-25T06:50:43.889Z,27.47
2017-09-25T06:53:12.707Z,22.60
2017-09-25T06:55:41.506Z,28.70
2017-09-25T06:58:10.298Z,21.30
2017-09-25T07:00:39.045Z,22.50
2017-09-25T07:03:07.840Z,21.80
2017-09-25T07:05:36.589Z,27.33
2017-09-25T07:08:05.448Z,24.70
2017-09-25T07:10:34.262Z,25.93
2017-09-25T07:13:03.055Z,22.17
2017-09-25T07:15:31.911Z,22.47
2017-09-25T07:18:00.691Z,29.30
2017-09-25T07:20:29.466Z,27.30
2017-09-25T07:22:58.295Z,22.97
2017-09-25T07:25:27.080Z,24.73
2017-09-25T07:27:55.953Z,26.47
2017-09-25T07:30:24.797Z,22.70
2017-09-25T07:32:53.610Z,20.80
2017-09-25T07:35:22.520Z,25.27
2017-09-25T07:37:51.391Z,27.03
2017-09-25T07:40:20.255Z,24.67
2017-09-25T07:42:49.104Z,21.60
2017-09-25T07:45:17.985Z,27.10
2017-09-25T07:47:46.805Z,23.47
2017-09-25T07:50:15.664Z,24.93
2017-09-25T07:52:44.438Z,23.00
2017-09-25T07:55:13.235Z,21.57
2017-09-25T07:57:42.020Z,32.30
2017-09-25T08:00:10.892Z,23.37
2017-09-25T08:02:39.646Z,21.33
2017-09-25T08:05:08.457Z,24.90
2017-09-25T08:07:37.239Z,22.97
2017-09-25T08:10:07.190Z,25.13
2017-09-25T08:12:37.174Z,35.90
2017-09-25T08:15:05.967Z,27.03
2017-09-25T08:17:34.858Z,33.53
2017-09-25T08:20:03.725Z,24.97
2017-09-25T08:22:32.445Z,32.70
2017-09-25T08:25:01.240Z,28.10
2017-09-25T08:27:30.020Z,24.30
2017-09-25T08:29:58.840Z,30.30
2017-09-25T08:32:27.626Z,24.83
2017-09-25T08:34:56.437Z,34.90
2017-09-25T08:37:25.253Z,34.40
2017-09-25T08:39:54.127Z,24.30
2017-09-25T08:42:22.949Z,27.40
2017-09-25T08:44:51.698Z,30.57
2017-09-25T08:47:20.538Z,24.00
2017-09-25T08:49:49.318Z,29.00
2017-09-25T08:52:18.183Z,28.30
2017-09-25T08:54:46.976Z,25.47
2017-09-25T08:57:15.740Z,30.87
2017-09-25T08:59:44.664Z,23.47
2017-09-25T09:02:13.388Z,26.27
2017-09-25T09:04:42.171Z,34.00
2017-09-25T09:07:11.055Z,30.63
2017-09-25T09:09:39.871Z,24.70
2017-09-25T09:12:08.590Z,34.03
2017-09-25T09:14:37.425Z,32.67
2017-09-25T09:17:06.474Z,22.00
2017-09-25T09:19:35.225Z,27.20
2017-09-25T09:22:04.048Z,28.53
2017-09-25T09:24:32.872Z,25.97
2017-09-25T09:27:01.744Z,30.93
2017-09-25T09:29:30.381Z,32.10
2017-09-25T09:31:59.201Z,37.13
2017-09-25T09:34:28.051Z,29.40
2017-09-25T09:36:56.813Z,34.57
2017-09-25T09:39:25.576Z,31.20
2017-09-25T09:41:54.313Z,36.33
2017-09-25T09:44:23.158Z,27.53
2017-09-25T09:46:51.926Z,25.97
2017-09-25T09:49:20.763Z,23.10
2017-09-25T09:51:49.586Z,39.23
2017-09-25T09:54:18.398Z,24.57
2017-09-25T09:56:47.233Z,21.67
2017-09-25T09:59:16.001Z,21.30
2017-09-25T10:01:44.753Z,28.13
2017-09-25T10:04:13.567Z,32.33
2017-09-25T10:06:42.407Z,24.03
2017-09-25T10:09:11.203Z,24.87
2017-09-25T10:11:39.998Z,21.67
2017-09-25T10:14:08.834Z,27.27
2017-09-25T10:16:37.623Z,28.10
2017-09-25T10:19:06.325Z,29.23
2017-09-25T10:21:35.121Z,26.50
2017-09-25T10:24:03.846Z,22.20
2017-09-25T10:26:32.674Z,20.60
2017-09-25T10:29:01.427Z,24.97
2017-09-25T10:31:30.225Z,35.97
2017-09-25T10:33:58.952Z,23.83
2017-09-25T10:36:27.685Z,28.47
2017-09-25T10:38:56.467Z,31.30
2017-09-25T10:41:25.199Z,22.10
2017-09-25T10:43:53.990Z,20.60
2017-09-25T10:46:22.730Z,43.37
2017-09-25T10:48:51.502Z,23.70
2017-09-25T10:51:20.306Z,26.70
2017-09-25T10:53:49.048Z,20.90
2017-09-25T10:56:17.866Z,26.00
2017-09-25T10:58:46.629Z,43.43
2017-09-25T11:01:15.408Z,38.93
2017-09-25T11:03:44.158Z,29.27
2017-09-25T11:06:13.041Z,22.20
2017-09-25T11:08:41.802Z,34.87
2017-09-25T11:11:10.546Z,22.40
2017-09-25T11:13:39.297Z,30.70
2017-09-25T11:16:08.043Z,24.87
2017-09-25T11:18:36.740Z,25.93
2017-09-25T11:21:05.518Z,29.60
2017-09-25T11:23:34.241Z,31.27
2017-09-25T11:26:03.044Z,20.83
2017-09-25T11:28:34.560Z,25.07
2017-09-25T11:31:03.439Z,25.77
2017-09-25T11:33:32.208Z,20.47
2017-09-25T11:36:04.114Z,23.43
2017-09-25T11:38:35.256Z,25.70
2017-09-25T11:41:03.991Z,30.80
2017-09-25T11:43:32.786Z,37.60
2017-09-25T11:46:01.545Z,29.80
2017-09-25T11:48:34.017Z,25.27
2017-09-25T11:51:02.765Z,25.07
2017-09-25T11:53:31.569Z,46.03
2017-09-25T11:56:00.466Z,22.97
2017-09-25T11:58:29.196Z,23.90
2017-09-25T12:00:58.189Z,28.30
2017-09-25T12:03:27.046Z,25.50
2017-09-25T12:05:55.797Z,25.80
2017-09-25T12:08:24.542Z,34.63
2017-09-25T12:10:53.273Z,26.20
2017-09-25T12:13:23.836Z,24.40
2017-09-25T12:15:52.616Z,20.43
2017-09-25T12:18:21.394Z,19.27
2017-09-25T12:20:50.270Z,22.10
2017-09-25T12:23:18.993Z,17.87
2017-09-25T12:25:47.774Z,23.37
2017-09-25T12:28:16.520Z,19.27
2017-09-25T12:30:45.280Z,21.70
2017-09-25T12:33:14.011Z,15.50
2017-09-25T12:35:42.734Z,23.73
2017-09-25T12:38:11.536Z,14.77
2017-09-25T12:40:40.268Z,19.37
2017-09-25T12:43:09.079Z,18.03
2017-09-25T12:45:37.849Z,18.50
2017-09-25T12:48:06.631Z,25.30
2017-09-25T12:50:35.458Z,19.63
2017-09-25T12:53:04.227Z,19.10
2017-09-25T12:55:32.988Z,25.60
2017-09-25T12:58:01.735Z,23.00
2017-09-25T13:00:30.538Z,24.53
2017-09-25T13:02:59.529Z,27.33
2017-09-25T13:05:30.087Z,22.00
2017-09-25T13:08:02.761Z,16.63
2017-09-25T13:10:31.480Z,24.63
2017-09-25T13:13:00.291Z,19.43
2017-09-25T13:15:28.998Z,27.60
2017-09-25T13:17:57.817Z,16.97
2017-09-25T13:20:26.594Z,20.00
2017-09-25T13:22:55.373Z,25.37
2017-09-25T13:25:24.142Z,20.93
2017-09-25T13:27:52.918Z,24.50
2017-09-25T13:30:21.720Z,21.27
2017-09-25T13:32:50.628Z,23.50
2017-09-25T13:35:19.494Z,17.27
2017-09-25T13:37:48.253Z,30.17
2017-09-25T13:40:16.985Z,18.53
2017-09-25T13:42:45.802Z,15.80
2017-09-25T13:45:14.563Z,26.53
2017-09-25T13:47:43.325Z,21.20
2017-09-25T13:50:12.131Z,22.70
2017-09-25T13:52:40.889Z,21.40
2017-09-25T13:55:09.710Z,21.67
2017-09-25T13:57:38.483Z,34.40
2017-09-25T14:02:41.046Z,23.80
2017-09-25T14:05:09.827Z,19.53
2017-09-25T14:07:38.613Z,21.00
2017-09-25T14:10:07.355Z,22.83
2017-09-25T14:12:36.173Z,20.70
2017-09-25T14:15:04.917Z,17.73
2017-09-25T14:17:33.735Z,23.50
2017-09-25T14:20:02.545Z,20.53
2017-09-25T14:22:31.405Z,19.43
2017-09-25T14:25:00.170Z,21.20
2017-09-25T14:27:28.922Z,24.20
2017-09-25T14:29:57.690Z,22.70
2017-09-25T14:32:26.457Z,16.03
2017-09-25T14:34:55.215Z,30.40
2017-09-25T14:37:23.961Z,16.27
2017-09-25T14:39:52.813Z,17.63
2017-09-25T14:42:21.602Z,20.53
2017-09-25T14:44:50.401Z,16.03
2017-09-25T14:47:19.154Z,17.30
2017-09-25T14:49:47.961Z,14.10
2017-09-25T14:52:16.775Z,11.27
2017-09-25T14:54:45.629Z,12.67
2017-09-25T14:57:14.433Z,18.60
2017-09-25T14:59:43.223Z,19.00
2017-09-25T15:02:11.976Z,14.30
2017-09-25T15:04:40.727Z,17.33
2017-09-25T15:07:09.290Z,13.80
2017-09-25T15:09:38.404Z,18.70
2017-09-25T15:12:07.163Z,16.47
2017-09-25T15:14:35.913Z,13.70
2017-09-25T15:17:04.710Z,25.20
2017-09-25T15:19:33.541Z,15.70
2017-09-25T15:22:02.298Z,25.40
2017-09-25T15:24:32.066Z,13.23
2017-09-25T15:27:15.006Z,17.30
2017-09-25T15:29:54.163Z,10.73
2017-09-25T15:32:29.248Z,15.97
2017-09-25T15:35:03.600Z,14.47
2017-09-25T15:37:32.685Z,14.03
2017-09-25T15:40:02.769Z,8.57
2017-09-25T15:42:38.664Z,23.40
2017-09-25T15:45:15.276Z,12.33
2017-09-25T15:47:45.540Z,10.20
2017-09-25T15:50:20.806Z,13.40
2017-09-25T15:52:49.578Z,8.83
2017-09-25T15:55:21.130Z,7.00
2017-09-25T15:57:58.389Z,17.07
2017-09-25T16:00:38.734Z,7.93
2017-09-25T16:03:14.574Z,14.10
2017-09-25T16:05:47.470Z,15.07
2017-09-25T16:08:19.649Z,14.20
2017-09-25T16:10:53.282Z,11.20
2017-09-25T16:13:32.517Z,10.10
2017-09-25T16:16:11.934Z,8.17
2017-09-25T16:18:54.554Z,10.57
2017-09-25T16:21:33.741Z,8.30
2017-09-25T16:24:13.792Z,9.53
2017-09-25T16:26:50.365Z,12.50
2017-09-25T16:29:23.098Z,11.10
2017-09-25T16:31:58.048Z,10.30
2017-09-25T16:34:36.742Z,10.07
2017-09-25T16:37:12.537Z,13.17
2017-09-25T16:39:49.879Z,14.60
2017-09-25T16:42:23.685Z,11.03
2017-09-25T16:44:57.750Z,10.50
2017-09-25T16:47:34.034Z,10.87
2017-09-25T16:50:08.047Z,8.40
2017-09-25T16:52:50.104Z,10.37
2017-09-25T16:55:27.623Z,8.83
2017-09-25T16:58:02.524Z,18.83
2017-09-25T17:00:35.050Z,12.17
2017-09-25T17:03:08.127Z,7.93
2017-09-25T17:05:44.388Z,16.87
2017-09-25T17:08:21.101Z,12.20
2017-09-25T17:11:01.961Z,15.83
2017-09-25T17:13:33.615Z,14.30
2017-09-25T17:16:06.466Z,17.13
2017-09-25T17:18:40.232Z,13.23
2017-09-25T17:21:20.733Z,14.27
2017-09-25T17:23:52.755Z,20.93
2017-09-25T17:26:33.259Z,14.63
2017-09-25T17:29:07.208Z,14.37
2017-09-25T17:31:39.397Z,11.30
2017-09-25T17:34:14.313Z,12.63
2017-09-25T17:39:25.455Z,14.67
2017-09-25T17:41:54.249Z,17.47
2017-09-25T17:44:29.226Z,19.30
2017-09-25T17:47:03.096Z,12.53
2017-09-25T17:49:36.280Z,17.57
2017-09-25T17:52:20.952Z,14.40
2017-09-25T17:55:01.407Z,15.13
2017-09-25T17:57:45.986Z,21.00
2017-09-25T18:00:27.245Z,18.50
2017-09-25T18:05:50.499Z,13.07
2017-09-25T18:08:27.759Z,16.73
2017-09-25T18:11:09.045Z,12.53
2017-09-25T18:13:54.416Z,13.93
2017-09-25T18:16:34.213Z,13.87
2017-09-25T18:19:15.236Z,11.13
2017-09-25T18:21:57.209Z,16.77
2017-09-25T18:24:37.542Z,16.23
2017-09-25T18:27:19.825Z,10.83
2017-09-25T18:30:01.599Z,15.40
2017-09-25T18:32:42.919Z,11.53
2017-09-25T18:35:25.634Z,12.80
2017-09-25T18:38:01.126Z,13.10
2017-09-25T18:40:29.979Z,11.97
2017-09-25T18:43:07.841Z,11.47
2017-09-25T18:45:49.353Z,14.00
2017-09-25T18:48:18.821Z,17.70
2017-09-25T18:50:47.622Z,14.67
2017-09-25T18:53:16.384Z,14.93
2017-09-25T18:55:45.092Z,12.03
2017-09-25T18:58:13.922Z,10.20
2017-09-25T19:00:43.298Z,12.10
2017-09-25T19:03:12.489Z,10.30
2017-09-25T19:05:53.510Z,10.60
2017-09-25T19:08:28.214Z,11.40
2017-09-25T19:11:09.514Z,11.63
2017-09-25T19:13:52.225Z,14.77
2017-09-25T19:16:34.719Z,13.53
2017-09-25T19:19:06.235Z,10.80
2017-09-25T19:21:47.648Z,10.57
2017-09-25T19:24:30.039Z,16.20
2017-09-25T19:27:05.712Z,12.07
2017-09-25T19:29:47.804Z,10.80
2017-09-25T19:32:25.177Z,10.17
2017-09-25T19:34:57.717Z,15.83
2017-09-25T19:37:27.338Z,13.50
2017-09-25T19:39:55.921Z,15.10
2017-09-25T19:42:24.727Z,15.73
2017-09-25T19:45:08.538Z,16.13
2017-09-25T19:47:51.753Z,12.33
2017-09-25T19:53:36.227Z,13.83
2017-09-25T19:56:07.513Z,14.40
2017-09-25T19:58:47.856Z,11.93
2017-09-25T20:01:16.529Z,11.60
2017-09-25T20:03:45.110Z,11.00
2017-09-25T20:06:13.699Z,12.40
2017-09-25T20:08:58.838Z,14.83
2017-09-25T20:11:44.240Z,14.27
2017-09-25T20:14:28.889Z,17.70
2017-09-25T20:20:33.116Z,16.27
2017-09-25T20:23:17.174Z,18.50
2017-09-25T20:26:00.457Z,18.00
2017-09-25T20:28:48.371Z,11.80
2017-09-25T20:31:31.114Z,19.53
2017-09-25T20:34:15.170Z,13.53
2017-09-25T20:36:58.388Z,14.63
2017-09-25T20:39:41.228Z,14.37
2017-09-25T20:42:28.140Z,14.80
2017-09-25T20:45:14.427Z,14.10
2017-09-25T20:47:59.688Z,14.23
2017-09-25T20:50:47.037Z,11.87
